Time;durP1;ratioP1;P1;durP2;ratioP2;P2;SDS_P1;SDS_P2;PMS_P1;PMS_P2;Temp;Humidity;BMP_temperature;BMP_pressure;BME280_temperature;BME280_humidity;BME280_pressure;Samples;Min_cycle;Max_cycle;Signal;HPM_P1;HPM_P2
2023/09/23 00:01:04;;;;;;;14.73;10.83;;;24.00;52.50;;;;;;5111217;28;20438;-77
2023/09/23 00:03:33;;;;;;;13.53;10.40;;;24.00;52.70;;;;;;5118516;27;20442;-77
2023/09/23 00:06:02;;;;;;;17.20;11.27;;;24.00;52.70;;;;;;5131417;27;20442;-76
2023/09/23 00:08:31;;;;;;;13.20;10.80;;;24.10;52.80;;;;;;5131064;27;20520;-77
2023/09/23 00:10:59;;;;;;;14.23;10.40;;;24.00;52.90;;;;;;5131894;27;20449;-75
2023/09/23 00:13:28;;;;;;;13.23;10.47;;;24.00;52.80;;;;;;5122149;27;20418;-76
2023/09/23 00:15:56;;;;;;;14.30;10.30;;;24.00;52.80;;;;;;5131035;28;20413;-77
2023/09/23 00:18:26;;;;;;;12.57;9.83;;;24.00;52.90;;;;;;5131562;28;20471;-76
2023/09/23 00:20:54;;;;;;;13.83;9.87;;;24.00;52.70;;;;;;5131572;28;20465;-76
2023/09/23 00:23:23;;;;;;;12.80;10.07;;;24.00;53.00;;;;;;5132007;28;20421;-76
2023/09/23 00:25:52;;;;;;;13.03;9.97;;;24.00;52.80;;;;;;5131436;28;20418;-75
2023/09/23 00:28:20;;;;;;;13.67;9.83;;;24.00;53.00;;;;;;5126190;28;20471;-74
2023/09/23 00:30:48;;;;;;;14.47;10.07;;;24.00;52.90;;;;;;5112952;28;20913;-75
2023/09/23 00:33:17;;;;;;;13.00;9.70;;;24.00;52.90;;;;;;5131639;28;20473;-76
2023/09/23 00:35:47;;;;;;;10.70;8.93;;;24.00;53.00;;;;;;5127245;28;20474;-77
2023/09/23 00:38:18;;;;;;;10.87;9.10;;;24.00;53.10;;;;;;5131503;28;20505;-78
2023/09/23 00:40:47;;;;;;;11.97;9.33;;;24.00;53.20;;;;;;5114093;28;20490;-77
2023/09/23 00:43:18;;;;;;;13.33;9.57;;;24.00;53.10;;;;;;5111606;28;20411;-77
2023/09/23 00:45:48;;;;;;;10.83;8.83;;;24.00;53.20;;;;;;5111323;28;20443;-77
2023/09/23 00:48:20;;;;;;;12.30;9.70;;;23.90;52.90;;;;;;5123076;28;20429;-76
2023/09/23 00:50:51;;;;;;;11.13;8.67;;;23.90;53.00;;;;;;5131508;28;20463;-78
2023/09/23 00:53:20;;;;;;;12.70;9.07;;;23.90;53.20;;;;;;5131360;28;20471;-77
2023/09/23 00:55:52;;;;;;;12.10;8.77;;;23.90;53.20;;;;;;5131664;28;20450;-79
2023/09/23 00:58:22;;;;;;;10.37;8.60;;;23.90;53.20;;;;;;5131663;28;20442;-76
2023/09/23 01:00:51;;;;;;;9.57;8.20;;;23.90;53.20;;;;;;5131078;28;21001;-76
2023/09/23 01:03:20;;;;;;;10.90;8.10;;;23.90;53.20;;;;;;5132357;27;20435;-76
2023/09/23 01:05:50;;;;;;;9.80;8.10;;;23.90;53.30;;;;;;5134947;27;20453;-77
2023/09/23 01:08:19;;;;;;;10.57;8.50;;;23.90;53.20;;;;;;5132667;27;20507;-77
2023/09/23 01:10:48;;;;;;;11.40;8.50;;;23.90;53.40;;;;;;5134984;27;20518;-77
2023/09/23 01:13:20;;;;;;;10.83;8.20;;;23.90;53.20;;;;;;5135269;27;20500;-76
2023/09/23 01:15:51;;;;;;;10.60;7.87;;;23.90;53.40;;;;;;5125635;27;20507;-77
2023/09/23 01:18:28;;;;;;;8.53;6.63;;;23.90;53.40;;;;;;5115081;28;20436;-78
2023/09/23 01:21:00;;;;;;;9.90;7.80;;;23.90;53.40;;;;;;5115061;28;20479;-77
2023/09/23 01:23:30;;;;;;;9.07;7.53;;;23.80;53.50;;;;;;5124229;27;20874;-76
2023/09/23 01:25:59;;;;;;;14.50;8.10;;;23.80;53.40;;;;;;5135182;27;20534;-76
2023/09/23 01:28:27;;;;;;;8.50;7.30;;;23.80;53.30;;;;;;5126555;27;20439;-75
2023/09/23 01:30:56;;;;;;;8.67;7.63;;;23.80;53.60;;;;;;5134918;27;20478;-75
2023/09/23 01:33:24;;;;;;;9.40;6.93;;;23.80;53.50;;;;;;5134182;27;20443;-76
2023/09/23 01:35:55;;;;;;;9.70;7.00;;;23.80;53.60;;;;;;5126280;27;20439;-75
2023/09/23 01:38:23;;;;;;;8.37;7.43;;;23.80;53.60;;;;;;5119670;27;20497;-74
2023/09/23 01:40:53;;;;;;;8.80;6.97;;;23.80;53.50;;;;;;5121932;27;20536;-77
2023/09/23 01:43:21;;;;;;;7.87;6.50;;;23.80;53.80;;;;;;5124968;27;20487;-75
2023/09/23 01:45:49;;;;;;;9.03;7.13;;;23.80;53.80;;;;;;5120287;27;20688;-76
2023/09/23 01:48:17;;;;;;;8.13;7.20;;;23.80;53.70;;;;;;5125748;27;20443;-75
2023/09/23 01:50:45;;;;;;;8.77;7.30;;;23.80;53.70;;;;;;5118536;27;20454;-76
2023/09/23 01:53:21;;;;;;;8.77;7.00;;;23.80;53.70;;;;;;5123043;27;20514;-75
2023/09/23 01:55:49;;;;;;;9.13;7.10;;;23.80;53.80;;;;;;5122660;27;20410;-77
2023/09/23 01:58:19;;;;;;;9.57;7.10;;;23.70;53.70;;;;;;5127826;27;20451;-78
2023/09/23 02:00:47;;;;;;;9.07;7.00;;;23.70;53.70;;;;;;5122555;27;20500;-77
2023/09/23 02:03:15;;;;;;;17.87;12.53;;;23.80;53.80;;;;;;5122919;27;20407;-75
2023/09/23 02:05:43;;;;;;;22.27;14.63;;;23.70;53.70;;;;;;5123820;27;20480;-75
2023/09/23 02:08:11;;;;;;;15.70;11.90;;;23.70;53.70;;;;;;5122659;27;20465;-75
2023/09/23 02:10:39;;;;;;;23.73;15.70;;;23.70;53.90;;;;;;5131379;27;20557;-78
2023/09/23 02:13:07;;;;;;;26.57;18.50;;;23.70;53.90;;;;;;5114825;27;20428;-76
2023/09/23 02:15:36;;;;;;;20.83;14.80;;;23.70;53.80;;;;;;5113687;28;20470;-75
2023/09/23 02:18:06;;;;;;;29.07;19.27;;;23.70;54.00;;;;;;5113189;27;20842;-77
2023/09/23 02:20:34;;;;;;;22.00;16.53;;;23.60;54.00;;;;;;5113293;28;20449;-76
2023/09/23 02:23:02;;;;;;;30.33;18.80;;;23.60;54.00;;;;;;5130240;27;20459;-76
2023/09/23 02:25:30;;;;;;;24.73;16.57;;;23.60;54.00;;;;;;5127677;27;20461;-76
2023/09/23 02:27:59;;;;;;;28.13;18.13;;;23.60;54.00;;;;;;5124285;27;20452;-76
2023/09/23 02:30:27;;;;;;;29.87;19.83;;;23.60;54.00;;;;;;5118588;27;20494;-77
2023/09/23 02:32:58;;;;;;;26.37;18.40;;;23.60;54.10;;;;;;5124565;27;20501;-77
2023/09/23 02:35:26;;;;;;;29.40;19.77;;;23.60;54.00;;;;;;5113576;28;20451;-77
2023/09/23 02:37:55;;;;;;;28.27;19.20;;;23.60;54.10;;;;;;5113696;27;20455;-77
2023/09/23 02:40:27;;;;;;;28.40;18.80;;;23.60;54.10;;;;;;5133790;27;20459;-76
2023/09/23 02:42:57;;;;;;;29.23;19.33;;;23.60;54.10;;;;;;5123050;27;20458;-76
2023/09/23 02:45:25;;;;;;;30.37;20.43;;;23.60;54.10;;;;;;5112875;28;20451;-76
2023/09/23 02:47:54;;;;;;;29.87;19.97;;;23.50;54.00;;;;;;5113399;27;20471;-76
2023/09/23 02:50:24;;;;;;;31.17;20.23;;;23.50;54.10;;;;;;5133293;27;20422;-76
2023/09/23 02:52:52;;;;;;;31.40;20.67;;;23.60;54.00;;;;;;5117006;27;20442;-78
2023/09/23 02:55:20;;;;;;;30.13;20.50;;;23.60;54.10;;;;;;5125567;27;20424;-77
2023/09/23 02:57:50;;;;;;;31.03;20.43;;;23.50;54.00;;;;;;5132154;27;20911;-76
2023/09/23 03:00:19;;;;;;;28.30;19.53;;;23.50;54.00;;;;;;5131139;27;20449;-78
2023/09/23 03:02:53;;;;;;;30.67;20.10;;;23.50;54.10;;;;;;5133489;27;20508;-77
2023/09/23 03:05:26;;;;;;;26.17;18.73;;;23.50;54.10;;;;;;5108050;28;20743;-77
2023/09/23 03:07:57;;;;;;;26.63;18.77;;;23.50;54.30;;;;;;5112368;28;20417;-77
2023/09/23 03:10:39;;;;;;;26.40;17.80;;;23.50;54.30;;;;;;5112925;28;20398;-77
2023/09/23 03:13:11;;;;;;;29.23;19.73;;;23.50;54.30;;;;;;5112284;28;20439;-76
2023/09/23 03:15:44;;;;;;;30.20;19.70;;;23.50;54.20;;;;;;5117812;27;20504;-76
2023/09/23 03:18:14;;;;;;;26.87;18.00;;;23.50;54.30;;;;;;5112578;28;20432;-75
2023/09/23 03:20:45;;;;;;;26.33;18.10;;;23.40;54.30;;;;;;5118519;27;20494;-76
2023/09/23 03:23:13;;;;;;;27.90;19.23;;;23.40;54.20;;;;;;5133232;27;20434;-75
2023/09/23 03:25:45;;;;;;;26.70;17.17;;;23.40;54.40;;;;;;5126674;27;20444;-77
2023/09/23 03:28:15;;;;;;;25.83;16.47;;;23.40;54.30;;;;;;5113294;28;20418;-77
2023/09/23 03:30:47;;;;;;;26.47;18.80;;;23.40;54.20;;;;;;5112425;27;20452;-77
2023/09/23 03:33:18;;;;;;;26.60;17.43;;;23.40;54.20;;;;;;5129073;27;20428;-77
2023/09/23 03:35:49;;;;;;;23.83;16.73;;;23.40;54.60;;;;;;5112238;28;20444;-77
2023/09/23 03:38:18;;;;;;;25.63;17.13;;;23.40;54.30;;;;;;5132135;27;20467;-76
2023/09/23 03:40:52;;;;;;;24.90;16.37;;;23.40;54.30;;;;;;5132316;27;20446;-76
2023/09/23 03:43:22;;;;;;;22.20;16.50;;;23.40;54.30;;;;;;5132550;27;20409;-78
2023/09/23 03:45:51;;;;;;;21.97;15.33;;;23.40;54.30;;;;;;5132990;27;20447;-77
2023/09/23 03:48:20;;;;;;;23.30;15.80;;;23.30;54.30;;;;;;5121141;27;20418;-79
2023/09/23 03:50:51;;;;;;;22.23;15.53;;;23.30;54.30;;;;;;5116789;27;20442;-77
2023/09/23 03:53:21;;;;;;;21.60;15.57;;;23.30;54.20;;;;;;5112097;28;20531;-78
2023/09/23 03:55:52;;;;;;;23.03;15.13;;;23.30;54.40;;;;;;5112119;28;20425;-77
2023/09/23 03:58:20;;;;;;;22.53;15.00;;;23.30;54.40;;;;;;5111555;28;20443;-77
2023/09/23 04:00:49;;;;;;;22.67;15.00;;;23.30;54.30;;;;;;5127276;27;20847;-77
2023/09/23 04:03:18;;;;;;;20.00;14.27;;;23.30;54.30;;;;;;5132172;27;20997;-76
2023/09/23 04:05:55;;;;;;;20.93;15.37;;;23.30;54.30;;;;;;5126699;27;20492;-79
2023/09/23 04:08:23;;;;;;;18.40;13.90;;;23.30;54.30;;;;;;5131164;27;20447;-78
2023/09/23 04:10:51;;;;;;;18.83;14.07;;;23.30;54.40;;;;;;5132027;27;20484;-77
2023/09/23 04:13:19;;;;;;;18.63;14.03;;;23.30;54.40;;;;;;5112729;28;20406;-77
2023/09/23 04:15:48;;;;;;;21.47;14.23;;;23.20;54.30;;;;;;5111813;28;20444;-75
2023/09/23 04:18:18;;;;;;;18.00;13.10;;;23.20;54.40;;;;;;5130629;28;20529;-74
2023/09/23 04:20:48;;;;;;;17.03;12.57;;;23.20;54.40;;;;;;5131680;28;20547;-75
2023/09/23 04:23:18;;;;;;;17.17;12.53;;;23.20;54.40;;;;;;5128877;28;20454;-75
2023/09/23 04:25:47;;;;;;;18.30;12.87;;;23.20;54.40;;;;;;5132004;28;20538;-76
2023/09/23 04:28:15;;;;;;;19.20;12.50;;;23.20;54.40;;;;;;5131802;28;20439;-77
2023/09/23 04:30:43;;;;;;;16.90;11.50;;;23.20;54.40;;;;;;5132248;28;20580;-76
2023/09/23 04:33:12;;;;;;;20.33;12.70;;;23.20;54.40;;;;;;5131853;28;20454;-76
2023/09/23 04:35:41;;;;;;;17.77;12.50;;;23.20;54.40;;;;;;5131958;28;20447;-75
2023/09/23 04:38:10;;;;;;;16.40;11.53;;;23.20;54.40;;;;;;5114546;28;20478;-75
2023/09/23 04:40:40;;;;;;;16.13;11.30;;;23.10;54.30;;;;;;5128532;27;20487;-78
2023/09/23 04:43:09;;;;;;;15.03;11.23;;;23.10;54.40;;;;;;5134255;27;20425;-76
2023/09/23 04:45:37;;;;;;;17.60;11.70;;;23.10;54.20;;;;;;5115483;28;20473;-75
2023/09/23 04:48:06;;;;;;;16.63;11.13;;;23.10;54.40;;;;;;5124130;27;20446;-75
2023/09/23 04:50:38;;;;;;;12.53;10.03;;;23.10;54.50;;;;;;5135465;27;20453;-78
2023/09/23 04:53:07;;;;;;;13.47;10.80;;;23.10;54.40;;;;;;5118604;27;20431;-77
2023/09/23 04:55:35;;;;;;;14.13;10.43;;;23.10;54.50;;;;;;5115352;28;20507;-76
2023/09/23 04:58:05;;;;;;;11.87;9.90;;;23.10;54.40;;;;;;5124281;27;20431;-77
2023/09/23 05:00:36;;;;;;;12.90;9.97;;;23.10;54.50;;;;;;5120205;27;20432;-75
2023/09/23 05:03:05;;;;;;;13.13;9.90;;;23.10;54.70;;;;;;5119424;27;20444;-75
2023/09/23 05:05:34;;;;;;;12.03;9.93;;;23.10;54.70;;;;;;5114169;27;20504;-76
2023/09/23 05:08:06;;;;;;;12.70;9.53;;;23.10;55.20;;;;;;5135581;27;20429;-77
2023/09/23 05:10:35;;;;;;;11.27;9.30;;;23.10;54.60;;;;;;5115122;27;20468;-75
2023/09/23 05:13:06;;;;;;;11.83;8.77;;;23.10;54.50;;;;;;5124129;27;20970;-76
2023/09/23 05:15:34;;;;;;;13.03;9.27;;;23.10;54.70;;;;;;5114982;28;20447;-76
2023/09/23 05:18:03;;;;;;;11.30;8.70;;;23.10;54.80;;;;;;5130599;27;20550;-76
2023/09/23 05:20:33;;;;;;;10.40;8.10;;;23.00;54.50;;;;;;5131514;27;20440;-76
2023/09/23 05:23:05;;;;;;;9.70;7.93;;;23.10;54.70;;;;;;5114158;28;20471;-76
2023/09/23 05:25:35;;;;;;;12.43;9.20;;;23.00;54.60;;;;;;5126619;27;20534;-76
2023/09/23 05:28:06;;;;;;;11.70;8.87;;;23.00;54.60;;;;;;5135090;27;20405;-76
2023/09/23 05:30:37;;;;;;;12.30;8.80;;;23.00;54.60;;;;;;5114615;27;20455;-76
2023/09/23 05:33:05;;;;;;;10.77;8.40;;;23.00;54.70;;;;;;5114592;27;20962;-77
2023/09/23 05:35:35;;;;;;;12.33;8.90;;;23.00;54.80;;;;;;5114334;28;20418;-76
2023/09/23 05:38:03;;;;;;;8.97;7.80;;;23.00;54.60;;;;;;5127539;27;20432;-76
2023/09/23 05:40:36;;;;;;;11.43;8.97;;;23.00;54.60;;;;;;5134452;27;20966;-76
2023/09/23 05:43:06;;;;;;;10.60;7.90;;;23.00;54.70;;;;;;5135046;27;20478;-75
2023/09/23 05:45:37;;;;;;;9.70;7.80;;;23.00;54.70;;;;;;5134765;27;20438;-76
2023/09/23 05:48:05;;;;;;;10.27;7.73;;;23.00;54.70;;;;;;5126608;27;20522;-76
2023/09/23 05:50:34;;;;;;;9.40;7.90;;;23.00;54.80;;;;;;5134398;27;20431;-76
2023/09/23 05:53:01;;;;;;;9.43;7.10;;;23.00;54.70;;;;;;5134541;27;20466;-77
2023/09/23 05:55:31;;;;;;;8.93;6.97;;;23.00;54.70;;;;;;5133368;27;20451;-78
2023/09/23 05:57:58;;;;;;;8.63;7.30;;;23.00;54.70;;;;;;5134356;27;20481;-76
2023/09/23 06:00:28;;;;;;;10.13;7.40;;;23.00;54.70;;;;;;5133689;27;20510;-77
2023/09/23 06:02:56;;;;;;;8.00;6.47;;;22.90;54.70;;;;;;5134257;27;20471;-78
2023/09/23 06:05:23;;;;;;;7.37;6.63;;;22.90;54.70;;;;;;5134328;27;20458;-77
2023/09/23 06:07:53;;;;;;;7.43;6.63;;;22.90;54.80;;;;;;5134230;27;20526;-76
2023/09/23 06:10:21;;;;;;;7.17;6.40;;;22.90;54.70;;;;;;5133170;27;20417;-77
2023/09/23 06:12:49;;;;;;;7.70;6.20;;;22.90;54.80;;;;;;5125553;27;20493;-76
2023/09/23 06:15:17;;;;;;;7.50;6.00;;;22.90;54.70;;;;;;5131275;27;20453;-76
2023/09/23 06:17:46;;;;;;;7.33;6.53;;;22.90;54.70;;;;;;5120056;27;20448;-76
2023/09/23 06:20:15;;;;;;;7.53;6.50;;;22.90;54.70;;;;;;5125562;27;20462;-76
2023/09/23 06:22:43;;;;;;;8.27;6.63;;;22.90;54.70;;;;;;5133573;27;20445;-76
2023/09/23 06:25:10;;;;;;;6.57;5.77;;;22.90;54.80;;;;;;5132503;27;20446;-77
2023/09/23 06:27:39;;;;;;;7.80;6.23;;;22.90;54.80;;;;;;5132919;27;20439;-76
2023/09/23 06:30:08;;;;;;;6.67;6.00;;;22.90;54.60;;;;;;5132015;27;20542;-78
2023/09/23 06:32:36;;;;;;;7.27;5.90;;;22.90;54.60;;;;;;5126696;27;20491;-78
2023/09/23 06:35:06;;;;;;;10.43;5.87;;;22.90;54.80;;;;;;5132933;27;20413;-77
2023/09/23 06:37:35;;;;;;;6.43;5.80;;;22.90;54.60;;;;;;5131844;27;20445;-77
2023/09/23 06:40:07;;;;;;;6.00;5.40;;;22.90;54.70;;;;;;5126817;27;20467;-76
2023/09/23 06:42:41;;;;;;;5.03;4.63;;;22.90;54.60;;;;;;5132960;27;20494;-76
2023/09/23 06:45:17;;;;;;;7.93;5.20;;;22.90;54.60;;;;;;5116871;27;20443;-75
2023/09/23 06:47:45;;;;;;;6.03;5.43;;;22.90;54.60;;;;;;5125436;27;20431;-76
2023/09/23 06:50:16;;;;;;;6.10;5.17;;;22.90;54.50;;;;;;5125328;27;20941;-76
2023/09/23 06:52:44;;;;;;;6.90;5.33;;;22.90;54.50;;;;;;5112792;28;20930;-77
2023/09/23 06:55:12;;;;;;;5.87;5.27;;;22.90;54.40;;;;;;5113084;28;20467;-76
2023/09/23 06:57:40;;;;;;;5.73;5.13;;;22.90;54.40;;;;;;5114822;27;20420;-76
2023/09/23 07:00:11;;;;;;;5.70;5.00;;;22.90;54.60;;;;;;5112659;28;20419;-76
2023/09/23 07:02:39;;;;;;;5.50;5.00;;;22.90;54.60;;;;;;5128345;27;20476;-76
2023/09/23 07:05:08;;;;;;;4.63;4.23;;;22.90;54.40;;;;;;5112680;28;20440;-74
2023/09/23 07:07:37;;;;;;;6.87;4.83;;;23.00;54.40;;;;;;5126102;27;20450;-76
2023/09/23 07:10:06;;;;;;;5.30;4.80;;;23.00;54.50;;;;;;5133429;27;20466;-74
2023/09/23 07:12:34;;;;;;;5.10;4.60;;;23.00;54.30;;;;;;5132867;27;20499;-77
2023/09/23 07:15:02;;;;;;;4.87;4.40;;;23.00;54.40;;;;;;5133160;27;20439;-75
2023/09/23 07:17:30;;;;;;;5.53;5.00;;;23.00;54.40;;;;;;5124325;27;20507;-75
2023/09/23 07:19:58;;;;;;;7.10;5.00;;;23.00;54.40;;;;;;5133061;27;20428;-75
2023/09/23 07:22:26;;;;;;;4.60;4.20;;;23.00;54.20;;;;;;5124450;27;20475;-75
2023/09/23 07:24:56;;;;;;;4.73;4.30;;;23.10;54.20;;;;;;5131823;27;20458;-77
2023/09/23 07:27:24;;;;;;;5.23;4.40;;;23.10;54.20;;;;;;5123857;27;20477;-76
2023/09/23 07:29:52;;;;;;;4.37;3.97;;;23.10;54.20;;;;;;5125135;27;20526;-76
2023/09/23 07:32:21;;;;;;;4.80;4.40;;;23.20;54.80;;;;;;5115405;27;20427;-76
2023/09/23 07:34:49;;;;;;;4.80;4.20;;;23.30;54.20;;;;;;5128304;27;20448;-77
2023/09/23 07:37:17;;;;;;;3.93;3.63;;;23.30;54.10;;;;;;5120695;27;20446;-77
2023/09/23 07:39:45;;;;;;;5.00;4.47;;;23.40;54.30;;;;;;5128909;27;20475;-76
2023/09/23 07:42:14;;;;;;;4.17;3.77;;;23.40;54.00;;;;;;5125785;27;20481;-77
2023/09/23 07:44:42;;;;;;;5.90;3.73;;;23.40;53.90;;;;;;5129219;27;20469;-74
2023/09/23 07:47:10;;;;;;;3.97;3.67;;;23.50;54.00;;;;;;5112094;28;20461;-76
2023/09/23 07:49:39;;;;;;;4.13;3.77;;;23.50;53.90;;;;;;5111691;28;20421;-77
2023/09/23 07:52:06;;;;;;;4.00;3.70;;;23.50;53.90;;;;;;5111495;28;20866;-77
2023/09/23 07:54:34;;;;;;;4.23;3.80;;;23.70;53.80;;;;;;5113153;27;20461;-78
2023/09/23 07:57:02;;;;;;;4.17;3.80;;;23.70;53.80;;;;;;5132043;27;20495;-77
2023/09/23 07:59:31;;;;;;;4.00;3.60;;;23.80;53.70;;;;;;5130766;27;20478;-76
2023/09/23 08:01:59;;;;;;;4.13;3.83;;;23.80;53.60;;;;;;5132204;27;20462;-77
2023/09/23 08:04:28;;;;;;;4.90;4.20;;;23.90;53.20;;;;;;5123522;27;20982;-76
2023/09/23 08:06:55;;;;;;;4.83;4.43;;;23.80;53.50;;;;;;5131894;27;20439;-76
2023/09/23 08:09:23;;;;;;;3.83;3.50;;;23.90;53.60;;;;;;5131908;27;20474;-77
2023/09/23 08:11:51;;;;;;;3.97;3.67;;;23.90;53.50;;;;;;5131626;27;20465;-78
2023/09/23 08:14:19;;;;;;;4.40;4.00;;;23.90;53.50;;;;;;5122834;27;21024;-78
2023/09/23 08:16:49;;;;;;;4.50;4.10;;;23.90;53.40;;;;;;5120249;27;20406;-76
2023/09/23 08:19:18;;;;;;;3.97;3.67;;;23.90;53.60;;;;;;5127266;28;20414;-78
2023/09/23 08:21:46;;;;;;;4.17;3.87;;;24.00;53.40;;;;;;5131918;28;20566;-77
2023/09/23 08:24:14;;;;;;;4.47;3.80;;;24.00;53.50;;;;;;5131685;28;20532;-76
2023/09/23 08:26:42;;;;;;;3.50;3.30;;;24.00;53.50;;;;;;5131581;28;20512;-77
2023/09/23 08:29:11;;;;;;;4.30;3.90;;;24.10;53.40;;;;;;5131644;28;20450;-76
2023/09/23 08:31:39;;;;;;;4.10;3.80;;;24.10;53.10;;;;;;5127596;28;20452;-77
2023/09/23 08:34:09;;;;;;;4.03;3.73;;;24.10;53.20;;;;;;5125759;28;20425;-75
2023/09/23 08:36:37;;;;;;;3.90;3.60;;;24.10;53.50;;;;;;5129555;28;20500;-78
2023/09/23 08:39:07;;;;;;;4.30;3.90;;;24.20;53.20;;;;;;5131646;28;20423;-76
2023/09/23 08:41:35;;;;;;;3.87;3.57;;;24.20;53.20;;;;;;5131684;28;20460;-75
2023/09/23 08:44:05;;;;;;;4.83;3.70;;;24.20;53.30;;;;;;5131632;28;20477;-76
2023/09/23 08:46:33;;;;;;;3.73;3.43;;;24.30;53.50;;;;;;5131552;28;20674;-77
2023/09/23 08:49:03;;;;;;;3.30;3.10;;;24.30;53.20;;;;;;5130623;28;20464;-77
2023/09/23 08:51:33;;;;;;;3.87;3.63;;;24.40;53.30;;;;;;5131644;28;20455;-77
2023/09/23 08:54:00;;;;;;;3.53;3.33;;;24.50;53.40;;;;;;5132270;28;20484;-74
2023/09/23 08:56:28;;;;;;;3.53;3.23;;;24.50;53.10;;;;;;5131813;28;20534;-77
2023/09/23 08:58:56;;;;;;;4.27;3.93;;;24.50;53.40;;;;;;5114752;28;20405;-78
2023/09/23 09:01:24;;;;;;;4.70;3.20;;;24.40;53.10;;;;;;5131318;28;20436;-78
2023/09/23 09:03:53;;;;;;;4.17;3.30;;;24.40;53.20;;;;;;5131660;28;20517;-79
2023/09/23 09:06:27;;;;;;;3.90;3.60;;;24.50;53.20;;;;;;5122238;28;20451;-80
2023/09/23 09:08:57;;;;;;;3.50;3.30;;;24.50;53.20;;;;;;5111583;28;20435;-77
2023/09/23 09:11:24;;;;;;;3.57;3.37;;;24.40;53.20;;;;;;5110669;28;20578;-80
2023/09/23 09:13:52;;;;;;;3.13;3.03;;;24.50;53.20;;;;;;5110620;28;20897;-76
2023/09/23 09:16:20;;;;;;;3.77;3.57;;;24.50;53.00;;;;;;5110961;28;20433;-76
2023/09/23 09:18:51;;;;;;;4.07;3.80;;;24.50;53.00;;;;;;5110979;28;20830;-79
2023/09/23 09:21:20;;;;;;;3.40;3.20;;;24.50;52.90;;;;;;5126109;28;20437;-77
2023/09/23 09:23:48;;;;;;;3.57;3.37;;;24.50;53.00;;;;;;5129780;27;20554;-76
2023/09/23 09:26:18;;;;;;;3.43;3.23;;;24.50;53.00;;;;;;5135003;27;20534;-77
2023/09/23 09:28:47;;;;;;;4.10;3.80;;;24.50;53.00;;;;;;5134757;27;20425;-76
2023/09/23 09:31:16;;;;;;;3.57;3.37;;;24.50;53.00;;;;;;5134833;27;20463;-76
2023/09/23 09:33:47;;;;;;;5.10;3.63;;;24.50;53.00;;;;;;5134899;27;20415;-77
2023/09/23 09:36:18;;;;;;;3.93;3.53;;;24.60;53.00;;;;;;5134432;27;20911;-74
2023/09/23 09:38:46;;;;;;;3.80;3.50;;;24.70;52.90;;;;;;5134248;27;20439;-78
2023/09/23 09:41:16;;;;;;;3.90;3.60;;;24.70;52.80;;;;;;5120333;27;20494;-76
2023/09/23 09:43:46;;;;;;;3.73;3.53;;;24.80;52.70;;;;;;5113939;27;20517;-76
2023/09/23 09:46:14;;;;;;;4.00;3.77;;;24.80;52.80;;;;;;5113987;28;20456;-76
2023/09/23 09:48:42;;;;;;;4.10;3.80;;;25.00;52.50;;;;;;5114027;28;20451;-76
2023/09/23 09:51:16;;;;;;;3.73;3.43;;;24.90;52.30;;;;;;5113827;28;20461;-77
2023/09/23 09:53:45;;;;;;;4.00;3.70;;;25.00;52.40;;;;;;5114337;28;20923;-76
2023/09/23 09:56:13;;;;;;;4.67;4.20;;;25.00;52.40;;;;;;5113509;27;20922;-79
2023/09/23 09:58:42;;;;;;;4.00;3.70;;;25.00;52.40;;;;;;5131327;27;20418;-77
2023/09/23 10:01:13;;;;;;;4.60;4.30;;;25.00;52.30;;;;;;5129207;27;20463;-77
2023/09/23 10:03:42;;;;;;;3.93;3.63;;;25.10;52.10;;;;;;5113785;27;20446;-78
2023/09/23 10:06:18;;;;;;;8.57;4.97;;;25.20;52.30;;;;;;5115458;28;20448;-77
2023/09/23 10:08:48;;;;;;;9.70;4.93;;;25.30;53.70;;;;;;5114907;27;20447;-76
2023/09/23 10:11:16;;;;;;;8.90;4.20;;;25.60;54.30;;;;;;5117304;27;20445;-77
2023/09/23 10:13:45;;;;;;;6.23;4.50;;;25.70;54.00;;;;;;5132072;27;20421;-79
2023/09/23 10:16:19;;;;;;;6.80;4.20;;;25.80;53.80;;;;;;5134416;27;20409;-79
2023/09/23 10:18:54;;;;;;;8.10;4.63;;;25.80;53.80;;;;;;5132665;27;20413;-79
2023/09/23 10:21:23;;;;;;;6.23;4.73;;;25.90;53.80;;;;;;5113531;28;20451;-79
2023/09/23 10:23:52;;;;;;;7.67;4.73;;;25.90;53.70;;;;;;5130327;27;20471;-78
2023/09/23 10:26:20;;;;;;;5.70;5.23;;;26.10;53.60;;;;;;5134395;27;20918;-77
2023/09/23 10:28:57;;;;;;;4.87;4.33;;;26.20;53.20;;;;;;5134165;27;20417;-79
2023/09/23 10:31:30;;;;;;;4.40;4.10;;;26.30;53.00;;;;;;5134342;27;20433;-78
2023/09/23 10:33:58;;;;;;;5.20;4.63;;;26.30;53.30;;;;;;5130624;27;20513;-79
2023/09/23 10:36:26;;;;;;;20.70;4.90;;;26.40;53.20;;;;;;5125927;27;20538;-80
2023/09/23 10:38:55;;;;;;;17.73;4.90;;;26.50;53.00;;;;;;5135014;27;20413;-79
2023/09/23 10:41:32;;;;;;;7.53;5.83;;;26.60;52.70;;;;;;5126498;27;20456;-77
2023/09/23 10:44:00;;;;;;;11.73;10.00;;;26.50;49.70;;;;;;5144637;27;20474;-77
2023/09/23 10:46:29;;;;;;;11.87;10.57;;;23.90;51.80;;;;;;5130861;27;20413;-76
2023/09/23 10:48:59;;;;;;;16.33;12.60;;;22.50;55.40;;;;;;5135915;27;20922;-77
2023/09/23 10:51:28;;;;;;;22.03;12.23;;;21.20;57.40;;;;;;5133641;27;20449;-76
2023/09/23 10:53:57;;;;;;;17.37;11.53;;;20.80;59.30;;;;;;5136617;27;20439;-76
2023/09/23 10:56:26;;;;;;;12.03;10.30;;;20.40;60.00;;;;;;5142893;27;20466;-77
2023/09/23 10:58:55;;;;;;;14.23;11.40;;;20.10;63.10;;;;;;5141130;27;20447;-77
2023/09/23 11:01:23;;;;;;;13.27;10.53;;;20.00;62.50;;;;;;5141330;27;20459;-77
2023/09/23 11:03:54;;;;;;;12.27;9.80;;;20.50;61.90;;;;;;5141055;27;20478;-76
2023/09/23 11:06:22;;;;;;;18.90;11.30;;;20.10;61.80;;;;;;5134413;27;20444;-77
2023/09/23 11:08:50;;;;;;;16.27;11.67;;;19.60;64.40;;;;;;5130684;27;20438;-78
2023/09/23 11:11:18;;;;;;;12.00;10.57;;;19.60;64.80;;;;;;5149002;22;20484;-76
2023/09/23 11:13:47;;;;;;;17.17;11.17;;;19.80;66.30;;;;;;5069041;28;20458;-76
2023/09/23 11:16:15;;;;;;;15.47;10.30;;;19.60;64.90;;;;;;5072137;28;20470;-76
2023/09/23 11:18:44;;;;;;;13.93;10.23;;;20.20;65.00;;;;;;5070182;28;20416;-76
2023/09/23 11:21:16;;;;;;;14.00;8.50;;;20.60;63.50;;;;;;5089622;28;20446;-79
2023/09/23 11:23:45;;;;;;;7.80;6.17;;;21.00;66.20;;;;;;5073454;28;20441;-78
2023/09/23 11:26:14;;;;;;;6.23;5.60;;;22.50;62.90;;;;;;5064838;28;20480;-78
2023/09/23 11:28:43;;;;;;;5.27;4.80;;;23.70;62.30;;;;;;5056634;28;20450;-78
2023/09/23 11:31:12;;;;;;;3.50;3.30;;;26.20;58.40;;;;;;5061772;28;20441;-80
2023/09/23 11:33:40;;;;;;;10.47;3.77;;;27.60;52.40;;;;;;5064398;28;20443;-79
2023/09/23 11:36:08;;;;;;;3.40;3.20;;;28.70;50.00;;;;;;5067939;28;20488;-79
2023/09/23 11:38:41;;;;;;;3.13;2.60;;;30.20;47.40;;;;;;5065431;28;20446;-76
2023/09/23 11:41:10;;;;;;;2.87;2.60;;;30.80;44.10;;;;;;5064147;28;20449;-78
2023/09/23 11:43:39;;;;;;;3.40;3.10;;;30.40;44.10;;;;;;5067396;28;20434;-78
2023/09/23 11:46:07;;;;;;;2.57;2.30;;;31.00;46.60;;;;;;5073506;28;20527;-78
2023/09/23 11:48:36;;;;;;;3.37;2.00;;;32.90;44.30;;;;;;5073305;28;20507;-78
2023/09/23 11:51:04;;;;;;;3.33;2.27;;;33.30;40.10;;;;;;5065589;28;20445;-77
2023/09/23 11:53:35;;;;;;;4.70;2.40;;;33.80;39.60;;;;;;5069733;28;20446;-78
2023/09/23 11:56:04;;;;;;;4.80;2.83;;;33.00;39.20;;;;;;5072155;28;20472;-77
2023/09/23 11:58:34;;;;;;;7.30;2.73;;;32.10;40.50;;;;;;5068887;28;21023;-78
2023/09/23 12:01:03;;;;;;;2.83;2.60;;;32.70;43.50;;;;;;5070976;28;20503;-78
2023/09/23 12:03:31;;;;;;;3.10;2.60;;;33.80;39.50;;;;;;5062602;28;20484;-77
2023/09/23 12:06:00;;;;;;;6.50;2.20;;;32.90;39.30;;;;;;5060064;28;21030;-80
2023/09/23 12:08:28;;;;;;;2.90;2.70;;;32.00;40.30;;;;;;5072916;28;20450;-78
2023/09/23 12:10:57;;;;;;;2.53;2.43;;;31.20;41.40;;;;;;5072556;28;20441;-79
2023/09/23 12:13:27;;;;;;;2.80;2.70;;;30.50;42.30;;;;;;5067506;28;20454;-80
2023/09/23 12:15:56;;;;;;;3.17;2.90;;;29.90;43.20;;;;;;5070493;28;20446;-78
2023/09/23 12:18:24;;;;;;;3.73;2.60;;;29.40;44.80;;;;;;5066359;28;20442;-79
2023/09/23 12:20:53;;;;;;;3.60;3.30;;;29.00;45.10;;;;;;5073365;28;20440;-77
2023/09/23 12:23:21;;;;;;;3.20;2.83;;;28.70;45.90;;;;;;5072157;28;20479;-78
2023/09/23 12:25:50;;;;;;;3.03;2.73;;;29.20;49.10;;;;;;5069500;28;20470;-80
2023/09/23 12:28:18;;;;;;;2.80;2.60;;;31.10;46.40;;;;;;5066851;28;20470;-77
2023/09/23 12:30:48;;;;;;;3.03;2.60;;;32.10;41.10;;;;;;5075769;28;20466;-78
2023/09/23 12:33:16;;;;;;;2.27;2.17;;;33.20;42.60;;;;;;5061392;28;20548;-78
2023/09/23 12:35:44;;;;;;;2.40;2.30;;;33.80;39.60;;;;;;5070560;28;20866;-77
2023/09/23 12:38:12;;;;;;;2.33;2.23;;;33.10;38.80;;;;;;5074614;28;20462;-78
2023/09/23 12:40:41;;;;;;;2.40;2.30;;;32.30;39.90;;;;;;5072779;28;20442;-78
2023/09/23 12:43:11;;;;;;;2.53;2.40;;;32.00;41.00;;;;;;5072260;28;20466;-78
2023/09/23 12:45:41;;;;;;;2.63;2.17;;;32.70;41.00;;;;;;5071043;28;20469;-77
2023/09/23 12:48:10;;;;;;;2.30;2.10;;;33.40;42.10;;;;;;5056327;28;20450;-81